sensor_id;sensor_type;location;lat;lon;timestamp;pressure;altitude;pressure_sealevel;temperature;humidity
36726;BME280;44936;52.086;5.150;2023-07-31T00:00:27;100260.19;;;15.88;100.00
36726;BME280;44936;52.086;5.150;2023-07-31T00:02:53;100240.03;;;15.84;100.00
36726;BME280;44936;52.086;5.150;2023-07-31T00:05:19;100256.28;;;16.01;100.00
36726;BME280;44936;52.086;5.150;2023-07-31T00:07:45;100251.00;;;16.01;100.00
36726;BME280;44936;52.086;5.150;2023-07-31T00:10:10;100252.47;;;16.11;100.00
36726;BME280;44936;52.086;5.150;2023-07-31T00:12:35;100227.00;;;16.07;100.00
36726;BME280;44936;52.086;5.150;2023-07-31T00:15:01;100241.38;;;16.28;100.00
36726;BME280;44936;52.086;5.150;2023-07-31T00:17:28;100200.25;;;16.17;100.00
36726;BME280;44936;52.086;5.150;2023-07-31T00:19:53;100213.16;;;16.29;100.00
36726;BME280;44936;52.086;5.150;2023-07-31T00:22:19;100182.38;;;16.25;100.00
36726;BME280;44936;52.086;5.150;2023-07-31T00:24:44;100172.63;;;16.27;100.00
36726;BME280;44936;52.086;5.150;2023-07-31T00:27:09;100193.22;;;16.45;100.00
36726;BME280;44936;52.086;5.150;2023-07-31T00:29:35;100152.97;;;16.34;100.00
36726;BME280;44936;52.086;5.150;2023-07-31T00:32:00;100165.78;;;16.48;100.00
36726;BME280;44936;52.086;5.150;2023-07-31T00:34:26;100183.22;;;16.55;100.00
36726;BME280;44936;52.086;5.150;2023-07-31T00:36:51;100171.94;;;16.48;100.00
36726;BME280;44936;52.086;5.150;2023-07-31T00:39:17;100174.59;;;16.48;100.00
36726;BME280;44936;52.086;5.150;2023-07-31T00:41:42;100170.91;;;16.54;100.00
36726;BME280;44936;52.086;5.150;2023-07-31T00:44:07;100163.03;;;16.51;100.00
36726;BME280;44936;52.086;5.150;2023-07-31T00:46:33;100158.72;;;16.48;100.00
36726;BME280;44936;52.086;5.150;2023-07-31T00:48:59;100161.31;;;16.50;100.00
36726;BME280;44936;52.086;5.150;2023-07-31T00:51:24;100163.03;;;16.51;100.00
36726;BME280;44936;52.086;5.150;2023-07-31T00:53:50;100162.75;;;16.60;100.00
36726;BME280;44936;52.086;5.150;2023-07-31T00:56:16;100147.16;;;16.51;100.00
36726;BME280;44936;52.086;5.150;2023-07-31T00:58:41;100150.41;;;16.59;100.00
36726;BME280;44936;52.086;5.150;2023-07-31T01:01:07;100152.13;;;16.61;100.00
36726;BME280;44936;52.086;5.150;2023-07-31T01:03:32;100146.91;;;16.58;100.00
36726;BME280;44936;52.086;5.150;2023-07-31T01:09:03;100134.59;;;16.57;100.00
36726;BME280;44936;52.086;5.150;2023-07-31T01:11:43;100128.53;;;16.54;100.00
36726;BME280;44936;52.086;5.150;2023-07-31T01:14:11;100143.25;;;16.62;100.00
36726;BME280;44936;52.086;5.150;2023-07-31T01:16:37;100106.53;;;16.52;100.00
36726;BME280;44936;52.086;5.150;2023-07-31T01:19:02;100090.81;;;16.47;100.00
36726;BME280;44936;52.086;5.150;2023-07-31T01:24:36;100103.75;;;16.56;100.00
36726;BME280;44936;52.086;5.150;2023-07-31T01:27:12;100106.28;;;16.59;100.00
36726;BME280;44936;52.086;5.150;2023-07-31T01:29:47;100108.91;;;16.61;100.00
36726;BME280;44936;52.086;5.150;2023-07-31T01:32:17;100103.59;;;16.61;100.00
36726;BME280;44936;52.086;5.150;2023-07-31T01:34:43;100105.53;;;16.56;100.00
36726;BME280;44936;52.086;5.150;2023-07-31T01:37:09;100083.63;;;16.51;100.00
36726;BME280;44936;52.086;5.150;2023-07-31T01:39:34;100092.34;;;16.54;100.00
36726;BME280;44936;52.086;5.150;2023-07-31T01:42:00;100112.34;;;16.63;100.00
36726;BME280;44936;52.086;5.150;2023-07-31T01:44:25;100093.41;;;16.49;100.00
36726;BME280;44936;52.086;5.150;2023-07-31T01:46:51;100070.69;;;16.41;100.00
36726;BME280;44936;52.086;5.150;2023-07-31T01:49:16;100096.00;;;16.50;100.00
36726;BME280;44936;52.086;5.150;2023-07-31T01:51:41;100076.84;;;16.42;100.00
36726;BME280;44936;52.086;5.150;2023-07-31T01:54:07;100095.91;;;16.53;100.00
36726;BME280;44936;52.086;5.150;2023-07-31T01:56:32;100073.19;;;16.46;100.00
36726;BME280;44936;52.086;5.150;2023-07-31T01:58:58;100069.53;;;16.50;100.00
36726;BME280;44936;52.086;5.150;2023-07-31T02:01:23;100050.56;;;16.37;100.00
36726;BME280;44936;52.086;5.150;2023-07-31T02:03:48;100053.91;;;16.42;100.00
36726;BME280;44936;52.086;5.150;2023-07-31T02:06:14;100035.84;;;16.29;100.00
36726;BME280;44936;52.086;5.150;2023-07-31T02:08:39;100055.78;;;16.39;100.00
36726;BME280;44936;52.086;5.150;2023-07-31T02:11:05;100034.81;;;16.33;100.00
36726;BME280;44936;52.086;5.150;2023-07-31T02:13:30;100058.13;;;16.48;100.00
36726;BME280;44936;52.086;5.150;2023-07-31T02:15:56;100043.16;;;16.47;100.00
36726;BME280;44936;52.086;5.150;2023-07-31T02:18:24;100015.47;;;16.31;100.00
36726;BME280;44936;52.086;5.150;2023-07-31T02:20:50;100030.38;;;16.33;100.00
36726;BME280;44936;52.086;5.150;2023-07-31T02:23:17;100014.69;;;16.29;100.00
36726;BME280;44936;52.086;5.150;2023-07-31T02:25:43;100039.97;;;16.37;100.00
36726;BME280;44936;52.086;5.150;2023-07-31T02:28:08;100006.25;;;16.18;100.00
36726;BME280;44936;52.086;5.150;2023-07-31T02:30:34;100020.94;;;16.26;100.00
36726;BME280;44936;52.086;5.150;2023-07-31T02:32:59;100033.75;;;16.38;100.00
36726;BME280;44936;52.086;5.150;2023-07-31T02:35:24;100007.66;;;16.28;100.00
36726;BME280;44936;52.086;5.150;2023-07-31T02:37:50;100000.91;;;16.19;100.00
36726;BME280;44936;52.086;5.150;2023-07-31T02:40:15;100010.00;;;16.37;100.00
36726;BME280;44936;52.086;5.150;2023-07-31T02:42:40;100027.34;;;16.46;100.00
36726;BME280;44936;52.086;5.150;2023-07-31T02:45:06;100010.84;;;16.37;100.00
36726;BME280;44936;52.086;5.150;2023-07-31T02:47:32;99998.94;;;16.24;100.00
36726;BME280;44936;52.086;5.150;2023-07-31T02:49:57;100023.91;;;16.42;100.00
36726;BME280;44936;52.086;5.150;2023-07-31T02:52:22;99994.44;;;16.28;100.00
36726;BME280;44936;52.086;5.150;2023-07-31T02:54:48;100016.09;;;16.39;100.00
36726;BME280;44936;52.086;5.150;2023-07-31T02:57:13;99985.72;;;16.24;100.00
36726;BME280;44936;52.086;5.150;2023-07-31T02:59:38;100009.88;;;16.40;100.00
36726;BME280;44936;52.086;5.150;2023-07-31T03:02:04;100011.84;;;16.35;100.00
36726;BME280;44936;52.086;5.150;2023-07-31T03:04:29;99970.88;;;16.20;100.00
36726;BME280;44936;52.086;5.150;2023-07-31T03:06:55;99979.66;;;16.21;100.00
36726;BME280;44936;52.086;5.150;2023-07-31T03:09:20;99976.91;;;16.24;100.00
36726;BME280;44936;52.086;5.150;2023-07-31T03:11:45;99977.03;;;16.21;100.00
36726;BME280;44936;52.086;5.150;2023-07-31T03:14:11;100086.75;;;16.37;100.00
36726;BME280;44936;52.086;5.150;2023-07-31T03:16:36;100071.97;;;16.30;100.00
36726;BME280;44936;52.086;5.150;2023-07-31T03:19:02;100030.06;;;16.16;100.00
36726;BME280;44936;52.086;5.150;2023-07-31T03:21:27;100038.63;;;16.24;100.00
36726;BME280;44936;52.086;5.150;2023-07-31T03:23:52;100048.88;;;16.35;100.00
36726;BME280;44936;52.086;5.150;2023-07-31T03:26:18;100048.88;;;16.35;100.00
36726;BME280;44936;52.086;5.150;2023-07-31T03:28:43;100049.78;;;16.34;100.00
36726;BME280;44936;52.086;5.150;2023-07-31T03:31:08;100032.69;;;16.18;100.00
36726;BME280;44936;52.086;5.150;2023-07-31T03:33:34;100038.75;;;16.21;100.00
36726;BME280;44936;52.086;5.150;2023-07-31T03:35:59;100044.59;;;16.31;100.00
36726;BME280;44936;52.086;5.150;2023-07-31T03:38:24;100009.81;;;16.15;100.00
36726;BME280;44936;52.086;5.150;2023-07-31T03:40:50;100008.09;;;16.14;100.00
36726;BME280;44936;52.086;5.150;2023-07-31T03:43:15;100035.84;;;16.29;100.00
36726;BME280;44936;52.086;5.150;2023-07-31T03:45:41;100034.13;;;16.28;100.00
36726;BME280;44936;52.086;5.150;2023-07-31T03:48:06;100000.41;;;16.06;100.00
36726;BME280;44936;52.086;5.150;2023-07-31T03:50:33;100029.06;;;16.20;100.00
36726;BME280;44936;52.086;5.150;2023-07-31T03:52:58;100020.88;;;16.28;100.00
36726;BME280;44936;52.086;5.150;2023-07-31T03:55:23;99988.97;;;16.06;100.00
36726;BME280;44936;52.086;5.150;2023-07-31T03:57:49;100018.50;;;16.20;100.00
36726;BME280;44936;52.086;5.150;2023-07-31T04:00:14;100017.31;;;16.29;100.00
36726;BME280;44936;52.086;5.150;2023-07-31T04:02:40;99975.69;;;16.07;100.00
36726;BME280;44936;52.086;5.150;2023-07-31T04:05:06;99981.81;;;16.09;100.00
36726;BME280;44936;52.086;5.150;2023-07-31T04:07:31;99998.94;;;16.24;100.00
36726;BME280;44936;52.086;5.150;2023-07-31T04:09:57;99989.28;;;16.23;100.00
36726;BME280;44936;52.086;5.150;2023-07-31T04:12:22;99982.50;;;16.14;100.00
36726;BME280;44936;52.086;5.150;2023-07-31T04:14:48;99973.88;;;16.09;100.00
36726;BME280;44936;52.086;5.150;2023-07-31T04:17:13;99966.63;;;16.14;100.00
36726;BME280;44936;52.086;5.150;2023-07-31T04:19:39;99950.22;;;16.05;100.00
36726;BME280;44936;52.086;5.150;2023-07-31T04:22:04;99968.47;;;16.12;100.00
36726;BME280;44936;52.086;5.150;2023-07-31T04:24:30;99948.59;;;16.01;100.00
36726;BME280;44936;52.086;5.150;2023-07-31T04:26:55;99972.09;;;16.10;100.00
36726;BME280;44936;52.086;5.150;2023-07-31T04:29:21;99989.50;;;16.17;100.00
36726;BME280;44936;52.086;5.150;2023-07-31T04:31:48;99971.25;;;16.09;100.00
36726;BME280;44936;52.086;5.150;2023-07-31T04:34:13;99954.19;;;15.92;100.00
36726;BME280;44936;52.086;5.150;2023-07-31T04:36:39;99995.13;;;16.06;100.00
36726;BME280;44936;52.086;5.150;2023-07-31T04:39:04;99985.63;;;16.01;100.00
36726;BME280;44936;52.086;5.150;2023-07-31T04:41:29;99991.78;;;16.01;100.00
36726;BME280;44936;52.086;5.150;2023-07-31T04:43:55;99979.41;;;16.02;100.00
36726;BME280;44936;52.086;5.150;2023-07-31T04:46:20;99931.44;;;15.86;100.00
36726;BME280;44936;52.086;5.150;2023-07-31T04:48:45;99962.44;;;16.09;100.00
36726;BME280;44936;52.086;5.150;2023-07-31T04:51:11;99928.63;;;15.92;100.00
36726;BME280;44936;52.086;5.150;2023-07-31T04:53:36;99957.16;;;16.09;100.00
36726;BME280;44936;52.086;5.150;2023-07-31T04:56:02;99950.00;;;16.11;100.00
36726;BME280;44936;52.086;5.150;2023-07-31T04:58:27;99938.63;;;16.09;100.00
36726;BME280;44936;52.086;5.150;2023-07-31T05:00:52;99947.44;;;16.09;100.00
36726;BME280;44936;52.086;5.150;2023-07-31T05:03:18;99935.31;;;16.02;100.00
36726;BME280;44936;52.086;5.150;2023-07-31T05:05:43;99924.81;;;16.01;100.00
36726;BME280;44936;52.086;5.150;2023-07-31T05:08:09;99938.50;;;16.12;100.00
36726;BME280;44936;52.086;5.150;2023-07-31T05:10:34;99907.47;;;15.92;100.00
36726;BME280;44936;52.086;5.150;2023-07-31T05:13:00;99915.28;;;15.95;100.00
36726;BME280;44936;52.086;5.150;2023-07-31T05:15:25;99933.97;;;15.89;100.00
36726;BME280;44936;52.086;5.150;2023-07-31T05:17:50;99928.63;;;15.92;100.00
36726;BME280;44936;52.086;5.150;2023-07-31T05:20:16;99932.06;;;15.94;100.00
36726;BME280;44936;52.086;5.150;2023-07-31T05:22:41;99901.63;;;15.81;100.00
36726;BME280;44936;52.086;5.150;2023-07-31T05:25:07;99903.69;;;15.99;100.00
36726;BME280;44936;52.086;5.150;2023-07-31T05:27:33;99876.72;;;15.88;100.00
36726;BME280;44936;52.086;5.150;2023-07-31T05:29:58;99890.66;;;15.93;100.00
36726;BME280;44936;52.086;5.150;2023-07-31T05:32:23;99868.53;;;15.96;100.00
36726;BME280;44936;52.086;5.150;2023-07-31T05:34:52;99866.88;;;15.93;100.00
36726;BME280;44936;52.086;5.150;2023-07-31T05:37:18;99845.84;;;15.89;100.00
36726;BME280;44936;52.086;5.150;2023-07-31T05:39:44;99822.00;;;15.90;100.00
36726;BME280;44936;52.086;5.150;2023-07-31T05:42:09;99788.84;;;15.81;100.00
36726;BME280;44936;52.086;5.150;2023-07-31T05:44:34;99806.03;;;15.93;100.00
36726;BME280;44936;52.086;5.150;2023-07-31T05:47:00;99806.09;;;15.92;100.00
36726;BME280;44936;52.086;5.150;2023-07-31T05:49:25;99779.81;;;15.87;100.00
36726;BME280;44936;52.086;5.150;2023-07-31T05:51:51;99809.97;;;16.06;100.00
36726;BME280;44936;52.086;5.150;2023-07-31T05:54:16;99769.16;;;15.89;100.00
36726;BME280;44936;52.086;5.150;2023-07-31T05:56:41;99775.09;;;15.95;100.00
36726;BME280;44936;52.086;5.150;2023-07-31T05:59:12;99768.44;;;15.85;100.00
36726;BME280;44936;52.086;5.150;2023-07-31T06:01:37;99763.53;;;15.99;100.00
36726;BME280;44936;52.086;5.150;2023-07-31T06:04:03;99736.31;;;15.96;100.00
36726;BME280;44936;52.086;5.150;2023-07-31T06:06:29;99728.59;;;15.90;100.00
36726;BME280;44936;52.086;5.150;2023-07-31T06:08:54;99719.69;;;15.92;100.00
36726;BME280;44936;52.086;5.150;2023-07-31T06:11:20;99713.69;;;15.87;100.00
36726;BME280;44936;52.086;5.150;2023-07-31T06:13:46;99727.97;;;16.06;100.00
36726;BME280;44936;52.086;5.150;2023-07-31T06:16:13;99735.81;;;16.09;100.00
36726;BME280;44936;52.086;5.150;2023-07-31T06:18:39;99700.13;;;15.96;100.00
36726;BME280;44936;52.086;5.150;2023-07-31T06:21:05;99709.69;;;16.00;100.00
36726;BME280;44936;52.086;5.150;2023-07-31T06:23:30;99699.13;;;16.00;100.00
36726;BME280;44936;52.086;5.150;2023-07-31T06:25:56;99719.09;;;16.09;100.00
36726;BME280;44936;52.086;5.150;2023-07-31T06:28:21;99711.09;;;16.10;100.00
36726;BME280;44936;52.086;5.150;2023-07-31T06:30:46;99698.66;;;16.12;100.00
36726;BME280;44936;52.086;5.150;2023-07-31T06:33:12;99692.72;;;16.06;100.00
36726;BME280;44936;52.086;5.150;2023-07-31T06:35:37;99705.66;;;16.13;100.00
36726;BME280;44936;52.086;5.150;2023-07-31T06:38:03;99722.91;;;16.24;100.00
36726;BME280;44936;52.086;5.150;2023-07-31T06:40:29;99715.81;;;16.26;100.00
36726;BME280;44936;52.086;5.150;2023-07-31T06:42:55;99694.06;;;16.18;100.00
36726;BME280;44936;52.086;5.150;2023-07-31T06:45:20;99702.56;;;16.26;100.00
36726;BME280;44936;52.086;5.150;2023-07-31T06:47:47;99691.84;;;16.29;100.00
36726;BME280;44936;52.086;5.150;2023-07-31T06:50:12;99685.63;;;16.30;100.00
36726;BME280;44936;52.086;5.150;2023-07-31T06:52:37;99662.56;;;16.33;100.00
36726;BME280;44936;52.086;5.150;2023-07-31T06:55:15;99673.09;;;16.35;100.00
36726;BME280;44936;52.086;5.150;2023-07-31T06:57:43;99651.94;;;16.35;100.00
36726;BME280;44936;52.086;5.150;2023-07-31T07:00:08;99650.72;;;16.43;100.00
36726;BME280;44936;52.086;5.150;2023-07-31T07:02:34;99645.34;;;16.45;100.00
36726;BME280;44936;52.086;5.150;2023-07-31T07:04:59;99631.75;;;16.54;100.00
36726;BME280;44936;52.086;5.150;2023-07-31T07:07:24;99649.50;;;16.51;100.00
36726;BME280;44936;52.086;5.150;2023-07-31T07:09:50;99644.84;;;16.57;100.00
36726;BME280;44936;52.086;5.150;2023-07-31T07:12:15;99628.78;;;16.40;100.00
36726;BME280;44936;52.086;5.150;2023-07-31T07:14:41;99622.50;;;16.42;100.00
36726;BME280;44936;52.086;5.150;2023-07-31T07:17:06;99613.91;;;16.37;100.00
36726;BME280;44936;52.086;5.150;2023-07-31T07:19:31;99605.09;;;16.37;100.00
36726;BME280;44936;52.086;5.150;2023-07-31T07:21:57;99620.59;;;16.46;100.00
36726;BME280;44936;52.086;5.150;2023-07-31T07:24:24;99620.16;;;16.57;100.00
36726;BME280;44936;52.086;5.150;2023-07-31T07:26:50;99619.44;;;16.53;100.00
36726;BME280;44936;52.086;5.150;2023-07-31T07:29:16;99613.75;;;16.62;100.00
36726;BME280;44936;52.086;5.150;2023-07-31T07:31:41;99608.25;;;16.67;100.00
36726;BME280;44936;52.086;5.150;2023-07-31T07:34:06;99594.31;;;16.63;100.00
36726;BME280;44936;52.086;5.150;2023-07-31T07:36:31;99595.88;;;16.67;100.00
36726;BME280;44936;52.086;5.150;2023-07-31T07:38:57;99579.13;;;16.67;100.00
36726;BME280;44936;52.086;5.150;2023-07-31T07:41:23;99559.31;;;16.77;100.00
36726;BME280;44936;52.086;5.150;2023-07-31T07:43:48;99544.38;;;16.76;100.00
36726;BME280;44936;52.086;5.150;2023-07-31T07:46:13;99548.22;;;16.89;100.00
36726;BME280;44936;52.086;5.150;2023-07-31T07:48:39;99520.88;;;16.89;100.00
36726;BME280;44936;52.086;5.150;2023-07-31T07:51:04;99536.78;;;16.89;100.00
36726;BME280;44936;52.086;5.150;2023-07-31T07:53:29;99530.16;;;16.79;100.00
36726;BME280;44936;52.086;5.150;2023-07-31T07:55:55;99511.81;;;16.74;100.00
36726;BME280;44936;52.086;5.150;2023-07-31T07:58:20;99536.78;;;16.89;100.00
36726;BME280;44936;52.086;5.150;2023-07-31T08:00:52;99512.13;;;16.87;100.00
36726;BME280;44936;52.086;5.150;2023-07-31T08:03:17;99509.28;;;16.91;100.00
36726;BME280;44936;52.086;5.150;2023-07-31T08:05:43;99470.03;;;16.81;100.00
36726;BME280;44936;52.086;5.150;2023-07-31T08:08:13;99472.06;;;16.94;100.00
36726;BME280;44936;52.086;5.150;2023-07-31T08:10:39;99468.06;;;17.05;100.00
36726;BME280;44936;52.086;5.150;2023-07-31T08:13:04;99456.47;;;17.07;100.00
36726;BME280;44936;52.086;5.150;2023-07-31T08:15:29;99436.25;;;17.05;100.00
36726;BME280;44936;52.086;5.150;2023-07-31T08:17:55;99434.94;;;17.15;100.00
36726;BME280;44936;52.086;5.150;2023-07-31T08:20:20;99423.47;;;17.14;100.00
36726;BME280;44936;52.086;5.150;2023-07-31T08:22:45;99421.25;;;17.24;100.00
36726;BME280;44936;52.086;5.150;2023-07-31T08:25:11;99420.41;;;17.23;100.00
36726;BME280;44936;52.086;5.150;2023-07-31T08:27:36;99421.09;;;17.27;100.00
36726;BME280;44936;52.086;5.150;2023-07-31T08:30:02;99415.81;;;17.27;100.00
36726;BME280;44936;52.086;5.150;2023-07-31T08:32:27;99414.88;;;17.28;100.00
36726;BME280;44936;52.086;5.150;2023-07-31T08:34:56;99410.94;;;17.37;100.00
36726;BME280;44936;52.086;5.150;2023-07-31T08:37:21;99405.91;;;17.31;100.00
36726;BME280;44936;52.086;5.150;2023-07-31T08:39:46;99419.47;;;17.43;100.00
36726;BME280;44936;52.086;5.150;2023-07-31T08:42:12;99398.94;;;17.47;100.00
36726;BME280;44936;52.086;5.150;2023-07-31T08:44:38;99396.78;;;17.55;100.00
36726;BME280;44936;52.086;5.150;2023-07-31T08:47:04;99413.78;;;17.51;100.00
36726;BME280;44936;52.086;5.150;2023-07-31T08:49:30;99400.91;;;17.43;100.00
36726;BME280;44936;52.086;5.150;2023-07-31T08:51:56;99399.09;;;17.44;100.00
36726;BME280;44936;52.086;5.150;2023-07-31T08:54:23;99400.13;;;17.41;100.00
36726;BME280;44936;52.086;5.150;2023-07-31T08:56:49;99402.47;;;17.47;100.00
36726;BME280;44936;52.086;5.150;2023-07-31T08:59:17;99391.00;;;17.47;100.00
36726;BME280;44936;52.086;5.150;2023-07-31T09:01:44;99401.91;;;17.41;100.00
36726;BME280;44936;52.086;5.150;2023-07-31T09:04:14;99395.53;;;17.45;100.00
36726;BME280;44936;52.086;5.150;2023-07-31T09:06:40;99400.91;;;17.43;100.00
36726;BME280;44936;52.086;5.150;2023-07-31T09:09:06;99377.97;;;17.42;100.00
36726;BME280;44936;52.086;5.150;2023-07-31T09:11:31;99388.75;;;17.56;100.00
36726;BME280;44936;52.086;5.150;2023-07-31T09:13:57;99369.81;;;17.64;100.00
36726;BME280;44936;52.086;5.150;2023-07-31T09:16:29;99352.84;;;17.68;100.00
36726;BME280;44936;52.086;5.150;2023-07-31T09:18:57;99335.88;;;17.90;100.00
36726;BME280;44936;52.086;5.150;2023-07-31T09:21:24;99330.56;;;17.90;100.00
36726;BME280;44936;52.086;5.150;2023-07-31T09:23:50;99330.28;;;17.96;100.00
36726;BME280;44936;52.086;5.150;2023-07-31T09:26:35;99321.53;;;17.94;100.00
36726;BME280;44936;52.086;5.150;2023-07-31T09:29:03;99313.88;;;18.05;100.00
36726;BME280;44936;52.086;5.150;2023-07-31T09:31:43;99314.34;;;17.96;100.00
36726;BME280;44936;52.086;5.150;2023-07-31T09:34:08;99317.78;;;17.98;100.00
36726;BME280;44936;52.086;5.150;2023-07-31T09:36:44;99312.56;;;17.96;100.00
36726;BME280;44936;52.086;5.150;2023-07-31T09:39:11;99301.56;;;18.04;100.00
36726;BME280;44936;52.086;5.150;2023-07-31T09:41:38;99298.50;;;18.11;100.00
36726;BME280;44936;52.086;5.150;2023-07-31T09:44:04;99301.06;;;18.13;100.00
36726;BME280;44936;52.086;5.150;2023-07-31T09:46:30;99286.94;;;18.13;100.00
36726;BME280;44936;52.086;5.150;2023-07-31T09:49:09;99308.19;;;18.13;100.00
36726;BME280;44936;52.086;5.150;2023-07-31T09:51:36;99301.69;;;18.01;100.00
36726;BME280;44936;52.086;5.150;2023-07-31T09:54:14;99300.44;;;18.08;100.00
36726;BME280;44936;52.086;5.150;2023-07-31T09:56:44;99303.00;;;18.09;100.00
36726;BME280;44936;52.086;5.150;2023-07-31T09:59:12;99298.97;;;18.02;100.00
36726;BME280;44936;52.086;5.150;2023-07-31T10:01:40;99301.69;;;18.01;100.00
36726;BME280;44936;52.086;5.150;2023-07-31T10:04:07;99291.72;;;18.06;100.00
36726;BME280;44936;52.086;5.150;2023-07-31T10:06:34;99288.88;;;18.09;100.00
36726;BME280;44936;52.086;5.150;2023-07-31T10:09:02;99290.94;;;18.04;100.00
36726;BME280;44936;52.086;5.150;2023-07-31T10:11:30;99282.19;;;18.02;100.00
36726;BME280;44936;52.086;5.150;2023-07-31T10:13:56;99292.09;;;17.98;100.00
36726;BME280;44936;52.086;5.150;2023-07-31T10:16:22;99290.94;;;18.04;100.00
36726;BME280;44936;52.086;5.150;2023-07-31T10:18:47;99299.28;;;17.96;100.00
36726;BME280;44936;52.086;5.150;2023-07-31T10:21:15;99298.09;;;18.02;100.00
36726;BME280;44936;52.086;5.150;2023-07-31T10:23:40;99300.31;;;17.94;100.00
36726;BME280;44936;52.086;5.150;2023-07-31T10:26:08;99301.31;;;17.91;100.00
36726;BME280;44936;52.086;5.150;2023-07-31T10:28:34;99305.53;;;17.95;100.00
36726;BME280;44936;52.086;5.150;2023-07-31T10:31:02;99303.03;;;17.92;100.00
36726;BME280;44936;52.086;5.150;2023-07-31T10:33:29;99299.59;;;17.90;100.00
36726;BME280;44936;52.086;5.150;2023-07-31T10:36:14;99287.56;;;18.00;100.00
36726;BME280;44936;52.086;5.150;2023-07-31T10:38:40;99290.41;;;17.97;100.00
36726;BME280;44936;52.086;5.150;2023-07-31T10:41:09;99287.06;;;17.94;100.00
36726;BME280;44936;52.086;5.150;2023-07-31T10:43:36;99256.00;;;17.78;100.00
36726;BME280;44936;52.086;5.150;2023-07-31T10:46:07;99263.56;;;17.86;100.00
36726;BME280;44936;52.086;5.150;2023-07-31T10:48:34;99294.19;;;18.09;100.00
36726;BME280;44936;52.086;5.150;2023-07-31T10:50:59;99284.53;;;18.08;100.00
36726;BME280;44936;52.086;5.150;2023-07-31T10:53:28;99293.50;;;18.05;100.00
36726;BME280;44936;52.086;5.150;2023-07-31T10:55:58;99268.91;;;18.02;100.00
36726;BME280;44936;52.086;5.150;2023-07-31T10:58:23;99295.91;;;18.10;100.00
36726;BME280;44936;52.086;5.150;2023-07-31T11:00:49;99277.03;;;17.99;100.00
36726;BME280;44936;52.086;5.150;2023-07-31T11:03:19;99298.81;;;18.05;100.00
36726;BME280;44936;52.086;5.150;2023-07-31T11:08:16;99311.06;;;18.08;100.00
36726;BME280;44936;52.086;5.150;2023-07-31T11:10:43;99297.41;;;17.98;100.00
36726;BME280;44936;52.086;5.150;2023-07-31T11:13:09;99327.28;;;18.02;100.00
36726;BME280;44936;52.086;5.150;2023-07-31T11:15:34;99323.09;;;17.98;100.00
36726;BME280;44936;52.086;5.150;2023-07-31T11:18:00;99312.69;;;17.93;100.00
36726;BME280;44936;52.086;5.150;2023-07-31T11:20:32;99316.53;;;18.05;100.00
36726;BME280;44936;52.086;5.150;2023-07-31T11:23:03;99316.44;;;18.06;100.00
36726;BME280;44936;52.086;5.150;2023-07-31T11:25:33;99292.88;;;18.00;100.00
36726;BME280;44936;52.086;5.150;2023-07-31T11:28:15;99305.84;;;18.06;100.00
36726;BME280;44936;52.086;5.150;2023-07-31T11:30:42;99286.56;;;18.03;100.00
36726;BME280;44936;52.086;5.150;2023-07-31T11:33:10;99300.22;;;18.13;100.00
36726;BME280;44936;52.086;5.150;2023-07-31T11:35:46;99269.00;;;18.00;100.00
36726;BME280;44936;52.086;5.150;2023-07-31T11:38:24;99284.38;;;18.11;100.00
36726;BME280;44936;52.086;5.150;2023-07-31T11:40:51;99301.28;;;18.08;100.00
36726;BME280;44936;52.086;5.150;2023-07-31T11:43:17;99301.56;;;18.04;100.00
36726;BME280;44936;52.086;5.150;2023-07-31T11:45:51;99290.59;;;18.10;100.00
36726;BME280;44936;52.086;5.150;2023-07-31T11:48:25;99310.66;;;18.16;100.00
36726;BME280;44936;52.086;5.150;2023-07-31T11:50:53;99305.19;;;18.19;100.00
36726;BME280;44936;52.086;5.150;2023-07-31T11:53:23;99301.00;;;18.15;100.00
36726;BME280;44936;52.086;5.150;2023-07-31T11:55:50;99286.78;;;18.16;100.00
36726;BME280;44936;52.086;5.150;2023-07-31T11:58:17;99304.19;;;18.21;100.00
36726;BME280;44936;52.086;5.150;2023-07-31T12:00:44;99282.63;;;18.10;100.00
36726;BME280;44936;52.086;5.150;2023-07-31T12:03:10;99302.16;;;18.09;100.00
36726;BME280;44936;52.086;5.150;2023-07-31T12:05:37;99320.09;;;18.21;100.00
36726;BME280;44936;52.086;5.150;2023-07-31T12:08:08;99307.06;;;18.17;100.00
36726;BME280;44936;52.086;5.150;2023-07-31T12:10:34;99320.88;;;18.23;100.00
36726;BME280;44936;52.086;5.150;2023-07-31T12:13:02;99330.47;;;18.26;100.00
36726;BME280;44936;52.086;5.150;2023-07-31T12:15:32;99325.78;;;18.31;100.00
36726;BME280;44936;52.086;5.150;2023-07-31T12:17:58;99332.09;;;18.28;100.00
36726;BME280;44936;52.086;5.150;2023-07-31T12:20:24;99314.34;;;18.13;100.00
36726;BME280;44936;52.086;5.150;2023-07-31T12:22:49;99343.53;;;18.13;100.00
36726;BME280;44936;52.086;5.150;2023-07-31T12:25:15;99303.41;;;18.02;100.00
36726;BME280;44936;52.086;5.150;2023-07-31T12:27:44;99331.19;;;18.29;100.00
36726;BME280;44936;52.086;5.150;2023-07-31T12:30:35;99314.09;;;18.18;100.00
36726;BME280;44936;52.086;5.150;2023-07-31T12:33:04;99298.06;;;18.19;100.00
36726;BME280;44936;52.086;5.150;2023-07-31T12:35:37;99310.84;;;18.28;100.00
36726;BME280;44936;52.086;5.150;2023-07-31T12:38:03;99316.22;;;18.44;100.00
36726;BME280;44936;52.086;5.150;2023-07-31T12:40:28;99309.78;;;18.32;100.00
36726;BME280;44936;52.086;5.150;2023-07-31T12:42:54;99319.91;;;18.42;100.00
36726;BME280;44936;52.086;5.150;2023-07-31T12:45:19;99287.88;;;18.11;100.00
36726;BME280;44936;52.086;5.150;2023-07-31T12:47:46;99317.91;;;18.29;100.00
36726;BME280;44936;52.086;5.150;2023-07-31T12:50:11;99334.50;;;18.33;100.00
36726;BME280;44936;52.086;5.150;2023-07-31T12:52:37;99330.59;;;18.40;100.00